Time;durP1;ratioP1;P1;durP2;ratioP2;P2;SDS_P1;SDS_P2;PMS_P1;PMS_P2;Temp;Humidity;BMP_temperature;BMP_pressure;BME280_temperature;BME280_humidity;BME280_pressure;Samples;Min_cycle;Max_cycle;Signal;HPM_P1;HPM_P2
2023/03/31 00:02:20;;;;;;;43.83;26.77;;;;;;;;;;10558734;28;20088;-83
2023/03/31 00:07:21;;;;;;;45.63;25.90;;;;;;;;;;10568234;28;20081;-82
2023/03/31 00:12:22;;;;;;;39.07;24.07;;;;;;;;;;10550140;28;20027;-82
2023/03/31 00:17:23;;;;;;;42.50;24.67;;;;;;;;;;10550125;28;20047;-82
2023/03/31 00:22:26;;;;;;;39.83;25.00;;;;;;;;;;10562953;28;20052;-84
2023/03/31 00:27:28;;;;;;;39.13;23.70;;;;;;;;;;10528221;28;20028;-80
2023/03/31 00:32:32;;;;;;;37.13;22.90;;;;;;;;;;10531230;28;20043;-81
2023/03/31 00:37:35;;;;;;;39.77;25.20;;;;;;;;;;10561845;28;20054;-83
2023/03/31 00:42:40;;;;;;;45.00;25.53;;;;;;;;;;10553247;28;20050;-80
2023/03/31 00:47:42;;;;;;;45.97;27.43;;;;;;;;;;10552486;28;20031;-81
2023/03/31 00:52:45;;;;;;;45.87;27.47;;;;;;;;;;10567246;28;20071;-82
2023/03/31 00:57:52;;;;;;;44.60;24.97;;;;;;;;;;10541531;28;20567;-82
2023/03/31 01:02:58;;;;;;;39.77;23.40;;;;;;;;;;10539530;28;20533;-82
2023/03/31 01:08:04;;;;;;;;;;;;;;;;;;10546999;28;20127;-81
2023/03/31 01:13:09;;;;;;;41.50;26.70;;;;;;;;;;10561204;22;19914;-83
2023/03/31 01:18:11;;;;;;;43.05;26.48;;;;;;;;;;10536564;28;20395;-81
2023/03/31 01:23:18;;;;;;;43.73;28.03;;;;;;;;;;10567279;28;20038;-80
2023/03/31 01:28:26;;;;;;;54.70;36.40;;;;;;;;;;10554349;28;20039;-82
2023/03/31 01:33:36;;;;;;;45.70;32.30;;;;;;;;;;10536392;28;20032;-82
2023/03/31 01:38:56;;;;;;;49.55;32.03;;;;;;;;;;10566158;28;20541;-83
2023/03/31 01:44:16;;;;;;;39.20;25.93;;;;;;;;;;10566575;28;20115;-82
2023/03/31 01:49:20;;;;;;;46.87;27.77;;;;;;;;;;10562760;22;20044;-80
2023/03/31 01:54:29;;;;;;;39.60;24.77;;;;;;;;;;10547333;28;20054;-81
2023/03/31 01:59:44;;;;;;;44.83;26.83;;;;;;;;;;10555989;28;20039;-80
2023/03/31 02:04:51;;;;;;;57.03;33.27;;;;;;;;;;10562750;28;20035;-80
2023/03/31 02:10:04;;;;;;;67.23;37.30;;;;;;;;;;10554589;28;20028;-81
2023/03/31 02:15:08;;;;;;;42.80;26.27;;;;;;;;;;10557535;28;20521;-80
2023/03/31 02:20:14;;;;;;;43.17;25.90;;;;;;;;;;10569775;28;20666;-81
2023/03/31 02:25:21;;;;;;;40.67;24.70;;;;;;;;;;10537374;28;20041;-79
2023/03/31 02:30:22;;;;;;;39.83;24.03;;;;;;;;;;10564387;28;20102;-81
2023/03/31 02:35:24;;;;;;;41.03;24.53;;;;;;;;;;10557624;28;20375;-79
2023/03/31 02:40:26;;;;;;;38.77;24.77;;;;;;;;;;10561288;28;20132;-81
2023/03/31 02:45:41;;;;;;;41.23;26.40;;;;;;;;;;10554928;28;20544;-79
2023/03/31 02:50:58;;;;;;;43.50;27.27;;;;;;;;;;10536094;28;20060;-80
2023/03/31 02:56:08;;;;;;;43.70;26.47;;;;;;;;;;10531934;28;20550;-79
2023/03/31 03:01:27;;;;;;;45.30;28.13;;;;;;;;;;10563371;28;20122;-82
2023/03/31 03:06:41;;;;;;;46.10;29.97;;;;;;;;;;10542891;28;20023;-80
2023/03/31 03:11:45;;;;;;;53.20;32.50;;;;;;;;;;10550426;28;20870;-82
2023/03/31 03:16:48;;;;;;;56.53;35.63;;;;;;;;;;10537872;28;20046;-79
2023/03/31 03:21:50;;;;;;;61.50;36.27;;;;;;;;;;10570379;28;20028;-81
2023/03/31 03:26:51;;;;;;;58.27;35.30;;;;;;;;;;10564808;28;20023;-78
2023/03/31 03:31:53;;;;;;;50.43;34.13;;;;;;;;;;10551125;28;20059;-80
2023/03/31 03:36:54;;;;;;;55.30;35.17;;;;;;;;;;10559041;28;20040;-79
2023/03/31 03:41:55;;;;;;;56.33;35.63;;;;;;;;;;10570316;28;20397;-79
2023/03/31 03:46:56;;;;;;;53.40;35.57;;;;;;;;;;10529672;28;20031;-80
2023/03/31 03:51:58;;;;;;;62.37;38.53;;;;;;;;;;10522024;28;20127;-81
2023/03/31 03:57:01;;;;;;;61.57;39.80;;;;;;;;;;10527487;28;20043;-80
2023/03/31 04:02:02;;;;;;;59.83;37.77;;;;;;;;;;10500099;28;20035;-84
2023/03/31 04:07:03;;;;;;;55.23;35.80;;;;;;;;;;10566143;28;20038;-83
2023/03/31 04:12:04;;;;;;;51.37;30.03;;;;;;;;;;10557293;28;20031;-80
2023/03/31 04:17:05;;;;;;;44.63;28.77;;;;;;;;;;10556622;28;20040;-82
2023/03/31 04:22:10;;;;;;;46.77;25.70;;;;;;;;;;10526256;28;20133;-79
2023/03/31 04:27:12;;;;;;;48.77;27.80;;;;;;;;;;10536557;28;20027;-83
2023/03/31 04:32:13;;;;;;;41.63;24.60;;;;;;;;;;10562599;28;20694;-82
2023/03/31 04:37:14;;;;;;;40.40;22.37;;;;;;;;;;10567633;28;20054;-81
2023/03/31 04:42:15;;;;;;;36.93;22.17;;;;;;;;;;10547451;28;20044;-80
2023/03/31 04:47:18;;;;;;;39.77;23.57;;;;;;;;;;10549020;28;20089;-81
2023/03/31 04:52:19;;;;;;;43.80;24.00;;;;;;;;;;10548365;28;20063;-80
2023/03/31 04:57:20;;;;;;;38.37;23.80;;;;;;;;;;10539773;28;20036;-81
2023/03/31 05:02:24;;;;;;;36.20;22.57;;;;;;;;;;10549067;28;20032;-81
2023/03/31 05:07:25;;;;;;;39.23;24.27;;;;;;;;;;10549962;28;20031;-80
2023/03/31 05:12:29;;;;;;;41.00;24.03;;;;;;;;;;10567978;28;20026;-79
2023/03/31 05:17:31;;;;;;;40.77;24.50;;;;;;;;;;10575742;28;20036;-79
2023/03/31 05:22:36;;;;;;;35.93;21.47;;;;;;;;;;10575033;28;20073;-81
2023/03/31 05:27:37;;;;;;;37.47;20.77;;;;;;;;;;10574915;28;20073;-81
2023/03/31 05:32:38;;;;;;;34.43;20.33;;;;;;;;;;10574866;28;20430;-81
2023/03/31 05:37:39;;;;;;;33.57;19.07;;;;;;;;;;10574926;28;20114;-82
2023/03/31 05:42:42;;;;;;;31.90;18.77;;;;;;;;;;10575452;28;20031;-82
2023/03/31 05:47:43;;;;;;;35.07;20.30;;;;;;;;;;10556269;28;20024;-81
2023/03/31 05:52:44;;;;;;;39.00;20.90;;;;;;;;;;10574191;28;20055;-82
2023/03/31 05:57:45;;;;;;;34.83;20.80;;;;;;;;;;10573775;28;20036;-81
2023/03/31 06:02:46;;;;;;;37.87;21.57;;;;;;;;;;10559512;28;20069;-82
2023/03/31 06:07:47;;;;;;;39.90;23.03;;;;;;;;;;10573813;28;20638;-80
2023/03/31 06:12:48;;;;;;;44.30;25.50;;;;;;;;;;10554537;28;20035;-80
2023/03/31 06:17:49;;;;;;;48.43;26.80;;;;;;;;;;10573081;28;20118;-80
2023/03/31 06:22:50;;;;;;;45.90;25.47;;;;;;;;;;10573736;28;20076;-79
2023/03/31 06:27:52;;;;;;;39.77;24.37;;;;;;;;;;10554321;28;20032;-81
2023/03/31 06:32:53;;;;;;;43.33;25.67;;;;;;;;;;10554378;28;20051;-81
2023/03/31 06:37:56;;;;;;;45.20;26.33;;;;;;;;;;10558639;28;20489;-79
2023/03/31 06:42:57;;;;;;;39.23;22.83;;;;;;;;;;10545414;28;20596;-80
2023/03/31 06:47:58;;;;;;;36.67;20.10;;;;;;;;;;10571944;28;20040;-80
2023/03/31 06:52:59;;;;;;;35.47;19.90;;;;;;;;;;10570939;28;20511;-79
2023/03/31 06:58:00;;;;;;;34.33;19.30;;;;;;;;;;10571389;28;20024;-80
2023/03/31 07:03:03;;;;;;;27.42;15.70;;;;;;;;;;10570804;28;20438;-82
2023/03/31 07:08:04;;;;;;;29.33;16.55;;;;;;;;;;10571271;28;20039;-80
2023/03/31 07:13:08;;;;;;;26.13;15.70;;;;;;;;;;10570979;28;20035;-82
2023/03/31 07:18:09;;;;;;;23.80;14.98;;;;;;;;;;10570196;28;20403;-81
2023/03/31 07:23:10;;;;;;;22.33;13.32;;;;;;;;;;10570200;28;20020;-81
2023/03/31 07:28:14;;;;;;;19.13;11.70;;;;;;;;;;10569997;28;20582;-80
2023/03/31 07:33:15;;;;;;;18.75;10.70;;;;;;;;;;10570324;28;20036;-81
2023/03/31 07:38:16;;;;;;;16.83;9.57;;;;;;;;;;10568920;28;20039;-79
2023/03/31 07:43:22;;;;;;;19.20;10.30;;;;;;;;;;10570419;28;20116;-80
2023/03/31 07:48:23;;;;;;;15.35;8.52;;;;;;;;;;10551000;28;20027;-81
2023/03/31 07:53:25;;;;;;;17.65;8.50;;;;;;;;;;10568791;28;20499;-81
2023/03/31 07:58:28;;;;;;;12.02;8.13;;;;;;;;;;10569498;28;20085;-81
2023/03/31 08:03:30;;;;;;;12.38;6.57;;;;;;;;;;10550942;28;20042;-81
2023/03/31 08:08:32;;;;;;;13.90;9.13;;;;;;;;;;10550978;28;20417;-80
2023/03/31 08:13:34;;;;;;;8.70;5.85;;;;;;;;;;10555037;28;20027;-82
2023/03/31 08:18:36;;;;;;;14.27;8.75;;;;;;;;;;10555010;28;20035;-81
2023/03/31 08:23:37;;;;;;;18.27;7.50;;;;;;;;;;10569059;28;20028;-81
2023/03/31 08:28:38;;;;;;;8.73;5.88;;;;;;;;;;10568571;28;20443;-81
2023/03/31 08:33:39;;;;;;;10.30;5.55;;;;;;;;;;10568747;28;20047;-82
2023/03/31 08:38:41;;;;;;;10.75;5.60;;;;;;;;;;10562419;28;20043;-80
2023/03/31 08:43:45;;;;;;;8.60;4.85;;;;;;;;;;10540747;28;20028;-80
2023/03/31 08:48:47;;;;;;;7.80;4.32;;;;;;;;;;10540011;28;20549;-80
2023/03/31 08:53:56;;;;;;;7.57;4.13;;;;;;;;;;10574866;28;20111;-81
2023/03/31 08:59:01;;;;;;;8.50;3.75;;;;;;;;;;10574707;28;20044;-81
2023/03/31 09:04:20;;;;;;;12.57;5.85;;;;;;;;;;10557328;28;20031;-79
2023/03/31 09:09:28;;;;;;;12.57;5.68;;;;;;;;;;10576436;28;20031;-80
2023/03/31 09:14:29;;;;;;;37.83;16.60;;;;;;;;;;10566473;28;20036;-81
2023/03/31 09:19:30;;;;;;;8.70;4.72;;;;;;;;;;10568752;28;20043;-83
2023/03/31 09:24:33;;;;;;;10.45;6.53;;;;;;;;;;10554045;28;20107;-81
2023/03/31 09:29:53;;;;;;;20.40;10.73;;;;;;;;;;10561604;28;20035;-81
2023/03/31 09:35:13;;;;;;;7.65;4.80;;;;;;;;;;10556164;28;20040;-83
2023/03/31 09:40:22;;;;;;;28.95;10.30;;;;;;;;;;10537446;28;20041;-83
2023/03/31 09:45:23;;;;;;;26.25;11.77;;;;;;;;;;10566492;28;21322;-85
2023/03/31 09:50:25;;;;;;;13.93;5.70;;;;;;;;;;10536007;28;20058;-82
2023/03/31 09:55:47;;;;;;;32.10;13.15;;;;;;;;;;10571855;28;20019;-82
2023/03/31 10:01:08;;;;;;;7.95;3.40;;;;;;;;;;10542982;28;20040;-81
2023/03/31 10:06:10;;;;;;;12.10;4.97;;;;;;;;;;10514225;28;20607;-84
2023/03/31 10:11:13;;;;;;;38.50;14.27;;;;;;;;;;10537448;28;20039;-81
2023/03/31 10:16:27;;;;;;;22.30;10.45;;;;;;;;;;10548360;28;20041;-83
2023/03/31 10:21:36;;;;;;;10.95;4.90;;;;;;;;;;10541677;28;20032;-84
2023/03/31 10:26:37;;;;;;;22.80;9.45;;;;;;;;;;10541774;28;20051;-82
2023/03/31 10:31:39;;;;;;;8.52;4.07;;;;;;;;;;10537285;28;20483;-84
2023/03/31 10:36:45;;;;;;;18.40;7.15;;;;;;;;;;10554506;28;20455;-83
2023/03/31 10:41:53;;;;;;;13.25;5.35;;;;;;;;;;10561549;28;20469;-83
2023/03/31 10:46:54;;;;;;;13.00;5.45;;;;;;;;;;10540862;28;20119;-82
2023/03/31 10:52:00;;;;;;;19.58;8.68;;;;;;;;;;10552706;28;20055;-81
2023/03/31 10:57:03;;;;;;;14.55;7.20;;;;;;;;;;10556563;28;20224;-82
2023/03/31 11:02:19;;;;;;;12.75;5.45;;;;;;;;;;10525174;28;20036;-83
2023/03/31 11:07:20;;;;;;;76.22;24.98;;;;;;;;;;10546472;28;20073;-82
2023/03/31 11:12:27;;;;;;;54.08;19.05;;;;;;;;;;10566714;28;20118;-81
2023/03/31 11:17:35;;;;;;;32.63;12.50;;;;;;;;;;10552996;28;20055;-83
2023/03/31 11:22:47;;;;;;;21.20;8.57;;;;;;;;;;10540467;28;20421;-80
2023/03/31 11:27:54;;;;;;;17.13;8.13;;;;;;;;;;10566352;28;20031;-83
2023/03/31 11:32:55;;;;;;;42.78;13.27;;;;;;;;;;10550402;28;20130;-80
2023/03/31 11:37:56;;;;;;;19.45;8.25;;;;;;;;;;10552976;28;20194;-80
2023/03/31 11:43:03;;;;;;;12.98;5.20;;;;;;;;;;10570081;28;20081;-84
2023/03/31 11:48:13;;;;;;;27.45;12.85;;;;;;;;;;10555017;28;20027;-81
2023/03/31 11:53:23;;;;;;;24.38;8.70;;;;;;;;;;10556580;28;20062;-82
2023/03/31 11:58:44;;;;;;;15.95;6.53;;;;;;;;;;10564950;28;20035;-82
2023/03/31 12:04:01;;;;;;;12.27;4.95;;;;;;;;;;10561202;28;20846;-81
2023/03/31 12:09:06;;;;;;;13.43;5.47;;;;;;;;;;10539898;28;20055;-82
2023/03/31 12:14:13;;;;;;;22.77;9.82;;;;;;;;;;10566620;28;20031;-83
2023/03/31 12:19:21;;;;;;;11.50;4.18;;;;;;;;;;10533904;28;20479;-81
2023/03/31 12:24:22;;;;;;;10.73;4.03;;;;;;;;;;10530761;28;20506;-85
2023/03/31 12:29:32;;;;;;;8.55;4.30;;;;;;;;;;10525204;28;20039;-82
2023/03/31 12:34:37;;;;;;;11.07;4.38;;;;;;;;;;10516413;28;20023;-81
2023/03/31 12:39:53;;;;;;;17.58;6.53;;;;;;;;;;10499478;28;20097;-83
2023/03/31 12:44:57;;;;;;;8.55;3.92;;;;;;;;;;10523407;28;20490;-83
2023/03/31 12:50:02;;;;;;;14.82;8.18;;;;;;;;;;10520016;28;20125;-80
2023/03/31 12:55:21;;;;;;;19.33;6.90;;;;;;;;;;10524637;28;20032;-83
2023/03/31 13:00:26;;;;;;;12.82;5.05;;;;;;;;;;10521829;28;20036;-79
2023/03/31 13:05:36;;;;;;;15.45;5.70;;;;;;;;;;10525818;28;20513;-80
2023/03/31 13:10:57;;;;;;;10.18;3.90;;;;;;;;;;10510177;28;20035;-80
2023/03/31 13:16:00;;;;;;;14.73;5.85;;;;;;;;;;10516293;28;20157;-83
2023/03/31 13:21:05;;;;;;;10.55;3.95;;;;;;;;;;10513437;28;20036;-79
2023/03/31 13:26:06;;;;;;;9.07;2.95;;;;;;;;;;10509064;28;20028;-82
2023/03/31 13:31:08;;;;;;;8.07;3.95;;;;;;;;;;10524125;28;20148;-81
2023/03/31 13:36:17;;;;;;;10.65;2.65;;;;;;;;;;10528283;28;20498;-80
2023/03/31 13:41:37;;;;;;;9.50;2.25;;;;;;;;;;10527288;28;20048;-81
2023/03/31 13:46:47;;;;;;;9.10;2.90;;;;;;;;;;10497446;28;20044;-80
2023/03/31 13:52:16;;;;;;;7.93;2.03;;;;;;;;;;10528777;28;20049;-81
2023/03/31 13:57:28;;;;;;;12.45;4.20;;;;;;;;;;10527637;28;20383;-79
2023/03/31 14:02:30;;;;;;;5.28;2.30;;;;;;;;;;10518908;28;20100;-81
2023/03/31 14:07:44;;;;;;;7.57;3.33;;;;;;;;;;10542474;28;20039;-81
2023/03/31 14:12:47;;;;;;;7.32;2.60;;;;;;;;;;10545326;28;20511;-80
2023/03/31 14:17:48;;;;;;;7.40;2.95;;;;;;;;;;10540168;28;20484;-83
2023/03/31 14:22:55;;;;;;;8.68;3.80;;;;;;;;;;10527562;28;20052;-81
2023/03/31 14:28:20;;;;;;;13.40;4.25;;;;;;;;;;10529566;28;20051;-83
2023/03/31 14:33:26;;;;;;;10.40;3.67;;;;;;;;;;10489720;28;20047;-81
2023/03/31 14:38:28;;;;;;;7.95;2.42;;;;;;;;;;10528531;28;20036;-80
2023/03/31 14:43:32;;;;;;;11.88;5.20;;;;;;;;;;10524162;28;20373;-80
2023/03/31 14:48:34;;;;;;;21.67;9.32;;;;;;;;;;10528556;28;20035;-79
2023/03/31 14:53:36;;;;;;;13.13;4.82;;;;;;;;;;10527116;28;20028;-80
2023/03/31 14:58:39;;;;;;;21.00;8.32;;;;;;;;;;10525678;28;20023;-81
2023/03/31 15:03:41;;;;;;;22.08;9.52;;;;;;;;;;10528294;28;20063;-82
2023/03/31 15:08:43;;;;;;;17.92;11.13;;;;;;;;;;10523066;28;20028;-80
2023/03/31 15:13:45;;;;;;;25.67;13.32;;;;;;;;;;10526010;28;20040;-81
2023/03/31 15:18:46;;;;;;;23.02;13.43;;;;;;;;;;10528133;28;20063;-81
2023/03/31 15:23:48;;;;;;;15.70;7.90;;;;;;;;;;10529103;28;20531;-81
2023/03/31 15:28:54;;;;;;;13.45;9.38;;;;;;;;;;10510134;28;20402;-81
2023/03/31 15:33:55;;;;;;;12.90;6.47;;;;;;;;;;10527904;28;20031;-81
2023/03/31 15:38:59;;;;;;;9.52;5.10;;;;;;;;;;10509100;28;20036;-80
2023/03/31 15:44:20;;;;;;;15.68;7.53;;;;;;;;;;10526846;28;20024;-81
2023/03/31 15:49:22;;;;;;;15.98;5.75;;;;;;;;;;10509202;28;20049;-80
2023/03/31 15:54:29;;;;;;;12.63;6.03;;;;;;;;;;10507810;28;20031;-80
2023/03/31 15:59:31;;;;;;;210.05;130.20;;;;;;;;;;10524748;28;20036;-80
2023/03/31 16:04:36;;;;;;;321.35;171.43;;;;;;;;;;10524424;28;20054;-80
2023/03/31 16:09:44;;;;;;;786.10;400.90;;;;;;;;;;10524844;28;20047;-81
2023/03/31 16:14:54;;;;;;;326.50;142.82;;;;;;;;;;10525442;28;20042;-80
2023/03/31 16:20:09;;;;;;;45.08;18.90;;;;;;;;;;10525473;28;20042;-80
2023/03/31 16:25:20;;;;;;;65.22;39.10;;;;;;;;;;10515864;28;20040;-81
2023/03/31 16:30:32;;;;;;;53.42;23.23;;;;;;;;;;10524030;28;20040;-79
2023/03/31 16:35:35;;;;;;;62.78;41.72;;;;;;;;;;10516145;28;20624;-81
2023/03/31 16:40:41;;;;;;;75.00;41.10;;;;;;;;;;10519616;28;20197;-80
2023/03/31 16:45:48;;;;;;;30.73;16.63;;;;;;;;;;10513503;28;20036;-80
2023/03/31 16:50:50;;;;;;;52.38;25.33;;;;;;;;;;10512635;28;20105;-82
2023/03/31 16:55:51;;;;;;;79.20;37.80;;;;;;;;;;10541244;28;20040;-80
2023/03/31 17:00:53;;;;;;;85.15;40.35;;;;;;;;;;10524795;28;20036;-81
2023/03/31 17:05:56;;;;;;;80.65;50.05;;;;;;;;;;10538410;28;20846;-79
2023/03/31 17:11:02;;;;;;;57.55;33.28;;;;;;;;;;10543502;28;20028;-83
2023/03/31 17:16:08;;;;;;;57.80;33.67;;;;;;;;;;10548166;28;20442;-82
2023/03/31 17:21:09;;;;;;;;;;;;;;;;;;10527125;28;20044;-81
2023/03/31 17:26:13;;;;;;;80.18;35.65;;;;;;;;;;10526871;28;20398;-81
2023/03/31 17:31:18;;;;;;;60.78;31.60;;;;;;;;;;10526941;28;20028;-81
2023/03/31 17:36:21;;;;;;;50.57;27.17;;;;;;;;;;10519327;28;20046;-82
2023/03/31 17:41:22;;;;;;;35.47;14.55;;;;;;;;;;10533131;28;20036;-82
2023/03/31 17:46:23;;;;;;;16.83;9.25;;;;;;;;;;10521857;28;20580;-83
2023/03/31 17:51:25;;;;;;;17.57;9.70;;;;;;;;;;10530978;28;20131;-82
2023/03/31 17:56:26;;;;;;;34.73;18.57;;;;;;;;;;10527092;28;20024;-84
2023/03/31 18:01:27;;;;;;;60.70;24.33;;;;;;;;;;10529814;28;20063;-84
2023/03/31 18:06:29;;;;;;;37.23;18.37;;;;;;;;;;10513587;28;20119;-83
2023/03/31 18:11:32;;;;;;;49.73;21.73;;;;;;;;;;10527379;28;20028;-82
2023/03/31 18:16:34;;;;;;;37.37;16.80;;;;;;;;;;10521005;28;20063;-82
2023/03/31 18:21:35;;;;;;;56.73;26.90;;;;;;;;;;10534406;28;20131;-81
2023/03/31 18:26:36;;;;;;;85.50;36.03;;;;;;;;;;10534243;28;20044;-81
2023/03/31 18:31:37;;;;;;;78.00;34.57;;;;;;;;;;10515358;28;20042;-82
2023/03/31 18:36:39;;;;;;;75.07;35.17;;;;;;;;;;10539190;28;20043;-82
2023/03/31 18:41:42;;;;;;;119.93;46.77;;;;;;;;;;10543295;28;20046;-81
2023/03/31 18:46:44;;;;;;;83.40;37.00;;;;;;;;;;10544122;28;20036;-81
2023/03/31 18:51:47;;;;;;;135.27;45.07;;;;;;;;;;10547258;28;20048;-85
2023/03/31 18:56:48;;;;;;;79.00;35.13;;;;;;;;;;10539330;28;20044;-83
2023/03/31 19:01:49;;;;;;;74.70;30.63;;;;;;;;;;10553744;28;20468;-80
2023/03/31 19:06:51;;;;;;;95.63;38.57;;;;;;;;;;10567459;28;20022;-84
2023/03/31 19:11:52;;;;;;;70.07;29.60;;;;;;;;;;10563102;28;20025;-81
2023/03/31 19:16:53;;;;;;;100.20;37.57;;;;;;;;;;10543511;28;20311;-85
2023/03/31 19:21:55;;;;;;;96.80;42.23;;;;;;;;;;10530032;28;20038;-83
2023/03/31 19:26:56;;;;;;;111.70;45.47;;;;;;;;;;10562300;28;20316;-80
2023/03/31 19:31:58;;;;;;;182.77;65.77;;;;;;;;;;10531049;28;20023;-80
2023/03/31 19:37:00;;;;;;;181.73;74.80;;;;;;;;;;10557153;28;20127;-80
2023/03/31 19:42:01;;;;;;;330.60;142.20;;;;;;;;;;10511571;28;20044;-81
2023/03/31 19:47:02;;;;;;;235.27;111.60;;;;;;;;;;10541790;28;20043;-83
2023/03/31 19:52:04;;;;;;;183.10;85.20;;;;;;;;;;10559408;28;20648;-81
2023/03/31 19:57:06;;;;;;;255.50;121.63;;;;;;;;;;10562906;28;20034;-81
2023/03/31 20:02:07;;;;;;;107.70;50.73;;;;;;;;;;10551348;28;20044;-81
2023/03/31 20:07:08;;;;;;;114.70;55.13;;;;;;;;;;10567625;28;20038;-81
2023/03/31 20:12:09;;;;;;;133.67;58.70;;;;;;;;;;10562271;28;20510;-81
2023/03/31 20:17:11;;;;;;;378.87;107.13;;;;;;;;;;10555492;28;20102;-81
2023/03/31 20:22:12;;;;;;;320.70;108.20;;;;;;;;;;10569485;28;20031;-80
2023/03/31 20:27:13;;;;;;;503.37;181.77;;;;;;;;;;10552118;28;20023;-85
2023/03/31 20:32:16;;;;;;;368.83;141.20;;;;;;;;;;10555871;28;20420;-82
2023/03/31 20:37:17;;;;;;;380.13;140.97;;;;;;;;;;10559512;28;20829;-82
2023/03/31 20:42:18;;;;;;;498.13;157.67;;;;;;;;;;10555533;28;20561;-82
2023/03/31 20:47:19;;;;;;;359.27;134.53;;;;;;;;;;10567887;28;20039;-81
2023/03/31 20:52:20;;;;;;;398.97;134.20;;;;;;;;;;10577163;28;20047;-82
2023/03/31 20:57:23;;;;;;;310.37;114.60;;;;;;;;;;10557247;28;20040;-80
2023/03/31 21:02:25;;;;;;;182.07;80.63;;;;;;;;;;10526199;28;20059;-81
2023/03/31 21:07:26;;;;;;;184.83;84.33;;;;;;;;;;10516748;28;20032;-81
2023/03/31 21:12:27;;;;;;;162.40;79.13;;;;;;;;;;10542554;28;20035;-81
2023/03/31 21:17:28;;;;;;;151.63;70.53;;;;;;;;;;10556150;28;20038;-81
2023/03/31 21:22:29;;;;;;;100.17;48.70;;;;;;;;;;10548041;28;20050;-81
2023/03/31 21:27:30;;;;;;;89.90;44.70;;;;;;;;;;10576696;28;20039;-82
2023/03/31 21:32:31;;;;;;;97.70;43.33;;;;;;;;;;10543986;28;20051;-81
2023/03/31 21:37:33;;;;;;;77.83;35.60;;;;;;;;;;10564086;28;20031;-81
2023/03/31 21:42:34;;;;;;;97.07;46.97;;;;;;;;;;10552982;28;20043;-82
2023/03/31 21:47:35;;;;;;;56.43;27.87;;;;;;;;;;10565911;28;20165;-80
2023/03/31 21:52:38;;;;;;;82.83;39.03;;;;;;;;;;10565888;28;20467;-81
2023/03/31 21:57:39;;;;;;;62.73;26.83;;;;;;;;;;10571639;28;20043;-81
2023/03/31 22:02:43;;;;;;;55.43;23.67;;;;;;;;;;10553674;28;20032;-80
2023/03/31 22:07:45;;;;;;;36.83;18.70;;;;;;;;;;10564702;28;20036;-82
2023/03/31 22:12:46;;;;;;;43.10;21.13;;;;;;;;;;10565977;28;20480;-82
2023/03/31 22:17:48;;;;;;;30.87;15.23;;;;;;;;;;10555558;28;20037;-80
2023/03/31 22:22:49;;;;;;;31.17;17.07;;;;;;;;;;10572333;28;20031;-80
2023/03/31 22:27:50;;;;;;;37.07;17.23;;;;;;;;;;10568889;28;20461;-80
2023/03/31 22:32:51;;;;;;;43.03;21.37;;;;;;;;;;10543268;28;20028;-81
2023/03/31 22:37:55;;;;;;;63.73;25.27;;;;;;;;;;10571228;28;20023;-80
2023/03/31 22:42:59;;;;;;;56.63;23.63;;;;;;;;;;10543056;28;20415;-80
2023/03/31 22:48:00;;;;;;;39.57;18.63;;;;;;;;;;10544842;28;20039;-81
2023/03/31 22:53:01;;;;;;;28.17;12.90;;;;;;;;;;10556780;28;20051;-80
2023/03/31 22:58:02;;;;;;;32.40;11.80;;;;;;;;;;10556178;28;20516;-80
2023/03/31 23:03:04;;;;;;;18.87;9.47;;;;;;;;;;10530475;28;20205;-80
2023/03/31 23:08:06;;;;;;;12.93;7.37;;;;;;;;;;10571568;28;20028;-80
2023/03/31 23:13:07;;;;;;;15.10;7.70;;;;;;;;;;10552488;28;20035;-80
2023/03/31 23:18:08;;;;;;;17.63;8.77;;;;;;;;;;10525103;28;20090;-81
2023/03/31 23:23:10;;;;;;;27.70;10.03;;;;;;;;;;10556937;28;20100;-81
2023/03/31 23:28:11;;;;;;;12.80;6.43;;;;;;;;;;10539200;28;20032;-81
2023/03/31 23:33:15;;;;;;;17.80;8.17;;;;;;;;;;10552693;28;20525;-83
2023/03/31 23:38:16;;;;;;;15.63;8.50;;;;;;;;;;10570706;28;20034;-81
2023/03/31 23:43:17;;;;;;;13.20;7.40;;;;;;;;;;10516070;28;20031;-81
2023/03/31 23:48:18;;;;;;;13.97;6.07;;;;;;;;;;10553262;28;20055;-84
2023/03/31 23:53:19;;;;;;;15.67;8.87;;;;;;;;;;10555746;28;20047;-80
2023/03/31 23:58:20;;;;;;;15.53;7.40;;;;;;;;;;10560660;28;20093;-81
